Time;durP1;ratioP1;P1;durP2;ratioP2;P2;SDS_P1;SDS_P2;PMS_P1;PMS_P2;Temp;Humidity;BMP_temperature;BMP_pressure;BME280_temperature;BME280_humidity;BME280_pressure;Samples;Min_cycle;Max_cycle;Signal;HPM_P1;HPM_P2
2023/12/10 00:01:32;;;;;;;19.33;3.60;;;10.50;99.90;;;;;;5029613;28;20268;-84
2023/12/10 00:03:57;;;;;;;20.60;3.20;;;10.60;99.90;;;;;;5029014;28;20029;-91
2023/12/10 00:06:23;;;;;;;18.38;4.22;;;10.60;99.90;;;;;;5029522;28;20025;-84
2023/12/10 00:08:49;;;;;;;11.40;3.17;;;10.60;99.90;;;;;;5023565;28;20036;-84
2023/12/10 00:11:15;;;;;;;19.38;3.00;;;10.50;99.90;;;;;;5009665;28;20026;-90
2023/12/10 00:13:40;;;;;;;13.65;3.10;;;10.50;99.90;;;;;;5010505;28;20035;-84
2023/12/10 00:16:06;;;;;;;14.85;3.00;;;10.50;99.90;;;;;;5009783;28;20033;-91
2023/12/10 00:18:32;;;;;;;19.92;3.22;;;10.30;99.90;;;;;;5010992;28;20397;-84
2023/12/10 00:20:57;;;;;;;13.63;2.72;;;10.40;99.90;;;;;;5009616;28;20037;-84
2023/12/10 00:23:23;;;;;;;17.88;2.95;;;10.40;99.90;;;;;;5009223;28;20088;-90
2023/12/10 00:25:49;;;;;;;15.85;3.53;;;10.30;99.90;;;;;;5009535;28;20545;-90
2023/12/10 00:28:14;;;;;;;13.98;2.70;;;10.30;99.90;;;;;;5009490;28;20026;-88
2023/12/10 00:30:42;;;;;;;14.32;2.63;;;10.30;99.90;;;;;;4992715;28;20069;-85
2023/12/10 00:33:08;;;;;;;19.17;3.53;;;10.30;99.90;;;;;;5021548;28;20022;-84
2023/12/10 00:35:34;;;;;;;16.00;3.00;;;10.30;99.90;;;;;;5029188;28;20041;-84
2023/12/10 00:38:00;;;;;;;12.63;2.90;;;10.20;99.90;;;;;;5029072;28;20026;-84
2023/12/10 00:40:26;;;;;;;10.98;3.08;;;10.20;99.90;;;;;;5029113;28;20021;-90
2023/12/10 00:42:51;;;;;;;15.32;2.83;;;10.20;99.90;;;;;;5028975;28;20033;-84
2023/12/10 00:45:17;;;;;;;13.35;2.90;;;10.10;99.90;;;;;;5020640;28;20026;-84
2023/12/10 00:47:43;;;;;;;13.93;3.38;;;10.10;99.90;;;;;;5010407;28;20401;-84
2023/12/10 00:50:08;;;;;;;12.70;2.58;;;10.10;99.90;;;;;;5009560;28;20112;-89
2023/12/10 00:52:36;;;;;;;10.32;2.65;;;10.00;99.90;;;;;;5009837;28;20473;-84
2023/12/10 00:55:03;;;;;;;12.43;2.88;;;10.00;99.90;;;;;;5050701;28;20033;-84
2023/12/10 00:57:28;;;;;;;12.80;2.75;;;10.00;99.90;;;;;;5050219;28;20026;-85
2023/12/10 00:59:54;;;;;;;16.35;3.55;;;9.80;99.90;;;;;;5033306;28;20392;-84
2023/12/10 01:02:19;;;;;;;22.08;3.92;;;9.80;99.90;;;;;;5016633;28;20034;-88
2023/12/10 01:04:45;;;;;;;10.73;2.75;;;9.90;99.90;;;;;;5009972;28;20026;-84
2023/12/10 01:07:11;;;;;;;15.68;3.00;;;10.00;99.90;;;;;;5009939;28;20033;-84
2023/12/10 01:09:38;;;;;;;15.75;3.58;;;10.00;99.90;;;;;;5012374;28;20029;-84
2023/12/10 01:12:06;;;;;;;10.50;2.35;;;10.10;99.90;;;;;;5027403;28;20477;-90
2023/12/10 01:14:32;;;;;;;17.90;2.85;;;10.10;99.90;;;;;;5012982;28;20046;-84
2023/12/10 01:16:57;;;;;;;16.45;4.05;;;10.10;99.90;;;;;;5012742;28;20109;-90
2023/12/10 01:19:23;;;;;;;18.30;3.20;;;10.10;99.90;;;;;;4995298;28;20021;-84
2023/12/10 01:21:51;;;;;;;16.02;2.88;;;10.10;99.90;;;;;;5013665;28;20022;-89
2023/12/10 01:24:20;;;;;;;17.40;4.00;;;10.10;99.90;;;;;;5032113;28;20041;-84
2023/12/10 01:26:46;;;;;;;19.77;2.67;;;10.20;99.90;;;;;;5032927;28;20030;-84
2023/12/10 01:29:11;;;;;;;17.95;3.42;;;10.20;99.90;;;;;;5014727;28;20033;-84
2023/12/10 01:31:37;;;;;;;15.20;3.10;;;10.10;99.90;;;;;;5032193;28;20531;-90
2023/12/10 01:34:03;;;;;;;19.42;3.50;;;10.20;99.90;;;;;;5030459;28;20568;-90
2023/12/10 01:36:29;;;;;;;17.45;2.83;;;10.20;99.90;;;;;;5032176;28;20051;-90
2023/12/10 01:38:56;;;;;;;18.77;3.28;;;10.20;99.90;;;;;;5032145;28;20030;-84
2023/12/10 01:41:23;;;;;;;23.65;3.35;;;10.40;99.90;;;;;;5032139;28;20017;-91
2023/12/10 01:43:49;;;;;;;19.65;3.65;;;10.40;99.90;;;;;;5013778;28;20025;-83
2023/12/10 01:46:16;;;;;;;18.30;3.75;;;10.40;99.90;;;;;;5032789;28;20028;-84
2023/12/10 01:48:43;;;;;;;15.68;3.55;;;10.40;99.90;;;;;;5031358;28;20573;-84
2023/12/10 01:51:09;;;;;;;27.50;4.00;;;10.50;99.90;;;;;;5031856;28;20409;-90
2023/12/10 01:53:37;;;;;;;25.73;3.72;;;10.50;99.90;;;;;;5043162;28;20037;-84
2023/12/10 01:56:04;;;;;;;19.90;3.95;;;10.50;99.90;;;;;;5051489;28;20535;-84
2023/12/10 01:58:30;;;;;;;24.95;4.05;;;10.50;99.90;;;;;;5044733;28;20047;-87
2023/12/10 02:00:56;;;;;;;20.63;4.18;;;10.40;99.90;;;;;;5031582;28;20561;-84
2023/12/10 02:03:22;;;;;;;16.25;3.88;;;10.40;99.90;;;;;;5021555;28;20030;-85
2023/12/10 02:05:47;;;;;;;17.40;4.10;;;10.40;99.90;;;;;;5024835;28;20039;-86
2023/12/10 02:08:13;;;;;;;20.60;4.18;;;10.40;99.90;;;;;;5031541;28;20022;-83
2023/12/10 02:10:40;;;;;;;19.65;3.88;;;10.40;99.90;;;;;;5030951;28;20198;-84
2023/12/10 02:13:07;;;;;;;20.65;3.75;;;10.30;99.90;;;;;;5031353;28;20018;-84
2023/12/10 02:15:32;;;;;;;20.85;3.58;;;10.40;99.90;;;;;;5031298;28;20465;-84
2023/12/10 02:17:58;;;;;;;27.20;3.90;;;10.30;99.90;;;;;;4999633;28;20022;-91
2023/12/10 02:20:24;;;;;;;21.13;3.55;;;10.30;99.90;;;;;;5011719;28;20433;-84
2023/12/10 02:22:52;;;;;;;23.25;3.60;;;10.30;99.90;;;;;;5023976;28;20470;-83
2023/12/10 02:25:28;;;;;;;23.92;3.60;;;10.20;99.90;;;;;;5014144;28;20040;-89
2023/12/10 02:27:53;;;;;;;15.82;3.13;;;10.30;99.90;;;;;;5013308;28;20025;-84
2023/12/10 02:30:19;;;;;;;26.10;3.95;;;10.30;99.90;;;;;;5017022;28;20505;-85
2023/12/10 02:32:45;;;;;;;20.50;3.85;;;10.30;99.90;;;;;;4977740;28;20407;-84
2023/12/10 02:35:11;;;;;;;34.85;3.97;;;10.30;99.90;;;;;;5011258;28;20485;-84
2023/12/10 02:37:37;;;;;;;23.17;3.58;;;10.30;99.90;;;;;;5017203;28;20485;-84
2023/12/10 02:40:03;;;;;;;17.30;2.50;;;10.30;99.90;;;;;;5020858;28;20037;-84
2023/12/10 02:42:28;;;;;;;18.55;3.70;;;10.20;99.90;;;;;;5010909;28;20104;-87
2023/12/10 02:44:54;;;;;;;23.85;4.60;;;10.30;99.90;;;;;;5011088;28;20108;-84
2023/12/10 02:47:19;;;;;;;23.10;4.25;;;10.30;99.90;;;;;;5011937;28;20105;-91
2023/12/10 02:49:45;;;;;;;23.77;3.50;;;10.30;99.90;;;;;;5011060;28;20022;-84
2023/12/10 02:52:11;;;;;;;23.52;3.90;;;10.20;99.90;;;;;;5023333;28;20349;-84
2023/12/10 02:54:36;;;;;;;18.98;3.28;;;10.20;99.90;;;;;;5046698;28;20463;-90
2023/12/10 02:57:02;;;;;;;21.95;3.97;;;10.30;99.90;;;;;;5050618;28;20440;-84
2023/12/10 02:59:28;;;;;;;20.40;3.40;;;10.30;99.90;;;;;;5047356;28;20095;-84
2023/12/10 03:01:53;;;;;;;14.85;2.67;;;10.30;99.90;;;;;;5030569;28;20029;-84
2023/12/10 03:04:19;;;;;;;18.15;3.15;;;10.30;99.90;;;;;;5013251;28;20033;-89
2023/12/10 03:06:44;;;;;;;17.30;3.33;;;10.30;99.90;;;;;;5030897;28;20440;-84
2023/12/10 03:09:10;;;;;;;20.50;3.35;;;10.30;99.90;;;;;;5030568;28;20084;-86
2023/12/10 03:11:36;;;;;;;24.33;3.40;;;10.40;99.90;;;;;;5030400;28;20025;-84
2023/12/10 03:14:03;;;;;;;22.38;3.42;;;10.30;99.90;;;;;;5030227;28;20052;-84
2023/12/10 03:16:29;;;;;;;22.77;3.83;;;10.20;99.90;;;;;;5030319;28;20024;-84
2023/12/10 03:18:55;;;;;;;19.70;3.38;;;10.30;99.90;;;;;;5029540;28;20033;-84
2023/12/10 03:21:20;;;;;;;17.20;3.33;;;10.30;99.90;;;;;;5013223;28;20527;-87
2023/12/10 03:23:46;;;;;;;27.35;3.75;;;10.30;99.90;;;;;;5029982;28;20026;-84
2023/12/10 03:26:12;;;;;;;21.83;4.28;;;10.30;99.90;;;;;;5030081;28;20704;-84
2023/12/10 03:28:37;;;;;;;17.20;3.08;;;10.30;99.90;;;;;;5029854;28;20111;-90
2023/12/10 03:31:03;;;;;;;19.08;3.80;;;10.20;99.90;;;;;;5030042;28;20029;-88
2023/12/10 03:33:31;;;;;;;25.23;3.53;;;10.20;99.90;;;;;;5029136;28;20133;-89
2023/12/10 03:35:58;;;;;;;28.35;3.30;;;10.10;99.90;;;;;;5029470;28;20100;-84
2023/12/10 03:38:24;;;;;;;23.90;4.88;;;10.10;99.90;;;;;;5030022;28;20037;-84
2023/12/10 03:40:49;;;;;;;23.65;5.55;;;10.10;99.90;;;;;;5030837;28;20080;-90
2023/12/10 03:43:15;;;;;;;20.63;4.80;;;10.10;99.90;;;;;;5022465;28;20034;-89
2023/12/10 03:45:40;;;;;;;21.30;4.40;;;10.10;99.90;;;;;;5009730;28;20529;-84
2023/12/10 03:48:06;;;;;;;23.90;4.20;;;10.00;99.90;;;;;;5025436;28;20113;-89
2023/12/10 03:50:32;;;;;;;18.73;3.28;;;9.90;99.90;;;;;;5029689;28;20104;-90
2023/12/10 03:52:57;;;;;;;19.58;3.97;;;9.80;99.90;;;;;;5029933;28;20428;-86
2023/12/10 03:55:23;;;;;;;20.33;3.88;;;9.80;99.90;;;;;;5032795;28;20091;-84
2023/12/10 03:57:50;;;;;;;14.98;2.70;;;9.70;99.90;;;;;;5036446;28;20033;-87
2023/12/10 04:00:16;;;;;;;19.98;3.22;;;9.70;99.90;;;;;;5017402;28;20040;-85
2023/12/10 04:02:42;;;;;;;11.35;2.42;;;9.60;99.90;;;;;;5020395;28;20077;-84
2023/12/10 04:05:11;;;;;;;11.88;3.15;;;9.60;99.90;;;;;;5010590;28;20376;-84
2023/12/10 04:07:38;;;;;;;18.90;3.20;;;9.60;99.90;;;;;;4993460;28;20085;-89
2023/12/10 04:10:04;;;;;;;15.63;4.20;;;9.50;99.90;;;;;;5007036;28;20406;-84
2023/12/10 04:12:31;;;;;;;16.98;3.38;;;9.40;99.90;;;;;;4992119;28;20426;-83
2023/12/10 04:14:57;;;;;;;12.43;3.25;;;9.30;99.90;;;;;;4991703;28;20034;-84
2023/12/10 04:17:22;;;;;;;12.02;2.95;;;9.30;99.90;;;;;;4997704;28;20037;-84
2023/12/10 04:19:48;;;;;;;15.95;3.50;;;9.30;99.90;;;;;;5029227;28;20111;-90
2023/12/10 04:22:14;;;;;;;12.63;2.50;;;9.30;99.90;;;;;;5011117;28;20406;-89
2023/12/10 04:24:39;;;;;;;11.63;2.80;;;9.30;99.90;;;;;;5029143;28;20037;-89
2023/12/10 04:27:05;;;;;;;16.88;3.83;;;9.20;99.90;;;;;;5011261;28;20022;-89
2023/12/10 04:29:30;;;;;;;16.35;2.92;;;9.20;99.90;;;;;;5029404;28;20441;-83
2023/12/10 04:31:56;;;;;;;17.08;2.88;;;9.20;99.90;;;;;;5028786;28;20025;-86
2023/12/10 04:34:22;;;;;;;11.25;2.63;;;9.20;99.90;;;;;;5029793;28;20091;-83
2023/12/10 04:36:48;;;;;;;12.60;3.05;;;9.30;99.90;;;;;;5028808;28;20036;-91
2023/12/10 04:39:15;;;;;;;17.92;3.55;;;9.40;99.90;;;;;;5028332;28;20415;-90
2023/12/10 04:41:41;;;;;;;16.90;3.10;;;9.40;99.90;;;;;;5028983;28;20026;-85
2023/12/10 04:44:07;;;;;;;22.15;3.42;;;9.50;99.90;;;;;;5028998;28;20504;-85
2023/12/10 04:46:33;;;;;;;15.15;2.92;;;9.60;99.90;;;;;;5031024;28;20021;-90
2023/12/10 04:48:58;;;;;;;20.27;3.58;;;9.70;99.90;;;;;;5013318;28;20033;-85
2023/12/10 04:51:24;;;;;;;14.75;3.05;;;9.80;99.90;;;;;;5029561;28;20033;-92
2023/12/10 04:53:50;;;;;;;14.60;3.28;;;9.90;99.90;;;;;;5032821;28;20468;-85
2023/12/10 04:56:17;;;;;;;20.27;3.92;;;9.90;99.90;;;;;;5032983;28;20053;-92
2023/12/10 04:58:42;;;;;;;17.73;3.60;;;10.00;99.90;;;;;;5032903;28;20021;-90
2023/12/10 05:01:08;;;;;;;17.60;3.35;;;10.10;99.90;;;;;;5031129;28;20053;-85
2023/12/10 05:03:34;;;;;;;18.70;3.78;;;10.00;99.90;;;;;;5032441;28;20025;-85
2023/12/10 05:06:00;;;;;;;22.02;3.95;;;10.10;99.90;;;;;;5032677;28;20505;-90
2023/12/10 05:08:26;;;;;;;16.92;4.28;;;10.10;99.90;;;;;;5015379;28;20039;-85
2023/12/10 05:10:52;;;;;;;23.02;4.53;;;10.20;99.90;;;;;;5032897;28;20424;-86
2023/12/10 05:13:17;;;;;;;20.30;4.20;;;10.20;99.90;;;;;;5031531;28;20032;-87
2023/12/10 05:15:43;;;;;;;17.08;4.07;;;10.20;99.90;;;;;;5045263;28;20036;-85
2023/12/10 05:18:08;;;;;;;18.45;4.03;;;10.20;99.90;;;;;;5044341;28;20048;-91
2023/12/10 05:20:34;;;;;;;22.48;3.42;;;10.20;99.90;;;;;;5033583;28;20037;-86
2023/12/10 05:23:00;;;;;;;15.75;3.00;;;10.20;99.90;;;;;;5043218;28;20029;-85
2023/12/10 05:25:27;;;;;;;20.92;4.43;;;10.20;99.90;;;;;;5016664;28;20038;-86
2023/12/10 05:27:54;;;;;;;19.67;3.72;;;10.20;99.90;;;;;;5023296;28;20024;-86
2023/12/10 05:30:20;;;;;;;14.55;3.45;;;10.10;99.90;;;;;;5014320;28;20593;-92
2023/12/10 05:32:45;;;;;;;17.80;3.47;;;10.10;99.90;;;;;;5031879;28;20698;-85
2023/12/10 05:35:11;;;;;;;20.05;3.13;;;10.00;99.90;;;;;;5031766;28;20037;-85
2023/12/10 05:37:37;;;;;;;16.48;3.60;;;10.00;99.90;;;;;;5031636;28;20164;-85
2023/12/10 05:40:02;;;;;;;12.75;3.10;;;9.90;99.90;;;;;;5032081;28;20036;-85
2023/12/10 05:42:28;;;;;;;18.85;3.55;;;9.90;99.90;;;;;;5032901;28;20033;-91
2023/12/10 05:44:55;;;;;;;14.02;3.65;;;9.80;99.90;;;;;;5014135;28;20037;-86
2023/12/10 05:47:21;;;;;;;11.73;2.53;;;9.80;99.90;;;;;;5000229;28;20218;-86
2023/12/10 05:49:47;;;;;;;16.35;3.38;;;9.80;99.90;;;;;;5012292;28;20026;-85
2023/12/10 05:52:12;;;;;;;22.02;3.53;;;9.70;99.90;;;;;;5013936;28;20038;-86
2023/12/10 05:54:38;;;;;;;19.20;3.33;;;9.50;99.90;;;;;;5031814;28;20037;-85
2023/12/10 05:57:04;;;;;;;14.90;3.38;;;9.60;99.90;;;;;;5030676;28;20036;-92
2023/12/10 05:59:30;;;;;;;16.00;3.13;;;9.50;99.90;;;;;;5032554;28;20481;-92
2023/12/10 06:01:56;;;;;;;12.30;3.25;;;9.40;99.90;;;;;;5031018;28;20084;-91
2023/12/10 06:04:21;;;;;;;15.10;3.03;;;9.40;99.90;;;;;;5031158;28;20080;-86
2023/12/10 06:06:47;;;;;;;11.52;2.92;;;9.40;99.90;;;;;;5031513;28;20033;-89
2023/12/10 06:09:14;;;;;;;18.67;3.42;;;9.30;99.90;;;;;;5031626;28;20036;-86
2023/12/10 06:11:40;;;;;;;20.17;3.95;;;9.30;99.90;;;;;;5046618;28;20031;-91
2023/12/10 06:14:06;;;;;;;20.33;3.40;;;9.30;99.90;;;;;;5051312;28;20036;-85
2023/12/10 06:16:32;;;;;;;13.63;2.70;;;9.30;99.90;;;;;;5043890;28;20029;-85
2023/12/10 06:18:58;;;;;;;22.48;3.83;;;9.30;99.90;;;;;;5032169;28;20025;-85
2023/12/10 06:21:23;;;;;;;12.00;2.90;;;9.30;99.90;;;;;;5013522;28;20029;-91
2023/12/10 06:23:49;;;;;;;13.80;2.80;;;9.30;99.90;;;;;;5030744;28;20507;-91
2023/12/10 06:26:15;;;;;;;13.43;3.00;;;9.20;99.90;;;;;;5031172;28;20036;-91
2023/12/10 06:28:40;;;;;;;15.68;2.97;;;9.20;99.90;;;;;;5030567;28;20029;-87
2023/12/10 06:31:06;;;;;;;12.18;3.00;;;9.20;99.90;;;;;;5028299;28;20040;-85
2023/12/10 06:33:32;;;;;;;18.65;3.22;;;9.20;99.90;;;;;;5022180;28;20034;-85
2023/12/10 06:35:57;;;;;;;16.75;3.40;;;9.20;99.90;;;;;;5021954;28;20102;-88
2023/12/10 06:38:23;;;;;;;14.85;3.70;;;9.20;99.90;;;;;;5027575;28;20105;-85
2023/12/10 06:40:48;;;;;;;14.40;2.92;;;9.20;99.90;;;;;;5011246;28;20109;-85
2023/12/10 06:43:14;;;;;;;15.68;3.15;;;9.20;99.90;;;;;;5027139;28;20025;-86
2023/12/10 06:45:41;;;;;;;14.32;3.70;;;9.30;99.90;;;;;;5012627;28;20036;-87
2023/12/10 06:48:07;;;;;;;12.45;3.00;;;9.30;99.90;;;;;;5010943;28;20022;-92
2023/12/10 06:50:32;;;;;;;25.02;3.75;;;9.30;99.90;;;;;;5021976;28;20038;-85
2023/12/10 06:52:58;;;;;;;18.77;3.80;;;9.30;99.90;;;;;;5020511;28;20028;-91
2023/12/10 06:55:24;;;;;;;15.40;3.08;;;9.30;99.90;;;;;;4995161;28;20373;-86
2023/12/10 06:57:49;;;;;;;17.98;3.63;;;9.20;99.90;;;;;;5025928;28;20508;-84
2023/12/10 07:00:17;;;;;;;24.77;3.35;;;9.30;99.90;;;;;;5034019;28;20033;-86
2023/12/10 07:02:43;;;;;;;16.33;3.07;;;9.30;99.90;;;;;;5024017;28;20026;-85
2023/12/10 07:05:09;;;;;;;17.63;3.45;;;9.30;99.90;;;;;;5027138;28;20284;-85
2023/12/10 07:07:35;;;;;;;16.20;3.03;;;9.30;99.90;;;;;;5027826;28;20086;-85
2023/12/10 07:10:01;;;;;;;21.15;3.00;;;9.30;99.90;;;;;;5030157;28;20074;-85
2023/12/10 07:12:27;;;;;;;24.42;3.20;;;9.30;99.90;;;;;;5026605;28;20036;-90
2023/12/10 07:14:52;;;;;;;16.75;3.90;;;9.40;99.90;;;;;;5003224;28;20033;-85
2023/12/10 07:17:18;;;;;;;23.30;3.20;;;9.40;99.90;;;;;;5029375;28;20021;-85
2023/12/10 07:19:44;;;;;;;13.65;3.20;;;9.40;99.90;;;;;;5026742;28;20499;-85
2023/12/10 07:22:09;;;;;;;14.45;2.88;;;9.40;99.90;;;;;;5025508;28;20030;-85
2023/12/10 07:24:37;;;;;;;20.15;2.95;;;9.40;99.90;;;;;;5004377;28;20037;-84
2023/12/10 07:27:03;;;;;;;11.68;2.90;;;9.40;99.90;;;;;;5023876;28;20026;-91
2023/12/10 07:29:29;;;;;;;13.82;3.10;;;9.40;99.90;;;;;;5016435;28;20034;-90
2023/12/10 07:31:54;;;;;;;20.20;4.10;;;9.30;99.90;;;;;;5017962;28;20429;-90
2023/12/10 07:34:20;;;;;;;17.73;3.63;;;9.30;99.90;;;;;;5031105;28;20518;-85
2023/12/10 07:36:45;;;;;;;12.60;3.08;;;9.30;99.90;;;;;;5029622;28;20532;-85
2023/12/10 07:39:13;;;;;;;15.77;3.35;;;9.30;99.90;;;;;;5033120;28;20029;-85
2023/12/10 07:41:38;;;;;;;22.17;3.65;;;9.30;99.90;;;;;;5011622;28;20029;-91
2023/12/10 07:44:04;;;;;;;16.05;3.45;;;9.30;99.90;;;;;;5022855;28;20044;-84
2023/12/10 07:46:30;;;;;;;15.18;2.70;;;9.30;99.90;;;;;;5021670;28;20025;-86
2023/12/10 07:48:56;;;;;;;18.05;3.15;;;9.40;99.90;;;;;;5028594;28;20277;-89
2023/12/10 07:51:22;;;;;;;14.80;3.22;;;9.40;99.90;;;;;;5029888;28;20470;-90
2023/12/10 07:53:47;;;;;;;17.75;3.58;;;9.40;99.90;;;;;;5017420;28;20102;-86
2023/12/10 07:56:13;;;;;;;21.48;3.10;;;9.40;99.90;;;;;;5030620;28;20039;-84
2023/12/10 07:58:39;;;;;;;20.17;3.55;;;9.50;99.90;;;;;;5040329;28;20024;-85
2023/12/10 08:01:05;;;;;;;18.75;3.60;;;9.50;99.90;;;;;;5029722;28;20393;-84
2023/12/10 08:03:30;;;;;;;18.92;4.10;;;9.50;99.90;;;;;;5042257;28;20509;-84
2023/12/10 08:05:56;;;;;;;19.25;4.28;;;9.50;99.90;;;;;;5029106;28;20080;-91
2023/12/10 08:08:22;;;;;;;20.20;3.47;;;9.50;99.90;;;;;;5035701;28;20055;-86
2023/12/10 08:10:49;;;;;;;16.10;2.63;;;9.60;99.90;;;;;;5030798;28;20472;-85
2023/12/10 08:13:15;;;;;;;18.25;3.60;;;9.60;99.90;;;;;;5027475;28;20025;-85
2023/12/10 08:15:41;;;;;;;21.52;3.60;;;9.70;99.90;;;;;;5022343;28;20182;-85
2023/12/10 08:18:07;;;;;;;26.25;3.80;;;9.70;99.90;;;;;;5018453;28;20120;-85
2023/12/10 08:20:33;;;;;;;16.55;3.85;;;9.80;99.90;;;;;;5028612;28;20509;-85
2023/12/10 08:22:59;;;;;;;24.67;4.10;;;9.80;99.90;;;;;;5026437;28;20017;-85
2023/12/10 08:25:25;;;;;;;19.75;3.88;;;9.80;99.90;;;;;;5027503;28;20034;-84
2023/12/10 08:27:51;;;;;;;22.77;4.18;;;9.90;99.90;;;;;;5032536;28;20156;-84
2023/12/10 08:30:17;;;;;;;13.55;3.28;;;9.90;99.90;;;;;;5029161;28;20060;-83
2023/12/10 08:32:42;;;;;;;24.15;3.35;;;10.10;99.90;;;;;;5028019;28;20026;-86
2023/12/10 08:35:08;;;;;;;22.80;3.78;;;10.10;99.90;;;;;;5031939;28;20048;-86
2023/12/10 08:37:34;;;;;;;24.70;3.60;;;10.20;99.90;;;;;;5031043;28;20025;-90
2023/12/10 08:40:02;;;;;;;23.00;3.60;;;10.30;99.90;;;;;;5028088;28;20033;-85
2023/12/10 08:42:27;;;;;;;22.13;3.53;;;10.40;99.90;;;;;;5028406;28;20025;-87
2023/12/10 08:44:53;;;;;;;22.17;3.83;;;10.50;99.90;;;;;;5002506;28;20022;-88
2023/12/10 08:47:19;;;;;;;27.20;4.70;;;10.50;99.90;;;;;;5030017;28;20108;-91
2023/12/10 08:49:45;;;;;;;21.33;3.67;;;;;;;;;;5028835;28;20056;-90
2023/12/10 08:52:10;;;;;;;32.40;4.90;;;10.80;99.90;;;;;;5010949;28;20545;-90
2023/12/10 08:54:36;;;;;;;21.77;3.58;;;10.70;99.90;;;;;;5011520;28;20037;-89
2023/12/10 08:57:02;;;;;;;35.72;6.43;;;10.70;99.90;;;;;;5028654;28;20022;-92
2023/12/10 08:59:28;;;;;;;22.85;4.55;;;10.80;99.90;;;;;;5012222;28;20555;-91
2023/12/10 09:01:54;;;;;;;24.17;5.00;;;10.90;99.90;;;;;;5012305;28;20060;-92
2023/12/10 09:04:20;;;;;;;24.23;4.60;;;;;;;;;;5012484;28;20033;-92
2023/12/10 09:06:46;;;;;;;28.02;6.13;;;;;;;;;;5033868;28;20374;-93
2023/12/10 09:09:12;;;;;;;32.20;5.45;;;11.10;99.90;;;;;;5002753;28;20044;-85
2023/12/10 09:11:37;;;;;;;27.83;4.75;;;11.10;99.90;;;;;;5031619;28;20025;-90
2023/12/10 09:14:03;;;;;;;21.55;4.30;;;11.20;99.90;;;;;;5048459;28;20068;-86
2023/12/10 09:16:29;;;;;;;30.70;4.38;;;11.30;99.90;;;;;;5030171;28;20045;-92
2023/12/10 09:18:54;;;;;;;27.30;5.03;;;11.30;99.90;;;;;;5028541;28;20083;-85
2023/12/10 09:21:20;;;;;;;22.92;4.03;;;11.40;99.90;;;;;;5025392;28;20105;-86
2023/12/10 09:23:45;;;;;;;25.60;5.05;;;11.50;99.90;;;;;;5038277;28;20112;-85
2023/12/10 09:26:12;;;;;;;21.88;4.72;;;11.50;99.90;;;;;;5036261;28;20485;-86
2023/12/10 09:28:37;;;;;;;29.88;4.95;;;12.20;99.90;;;;;;5028802;28;20022;-86
2023/12/10 09:31:03;;;;;;;28.30;5.18;;;11.70;99.90;;;;;;5011043;28;20033;-91
2023/12/10 09:33:29;;;;;;;34.60;5.05;;;11.80;99.90;;;;;;5031245;28;20030;-84
2023/12/10 09:35:54;;;;;;;27.73;4.72;;;11.80;99.90;;;;;;5036438;28;20029;-89
2023/12/10 09:38:20;;;;;;;29.48;5.25;;;11.90;99.90;;;;;;5046839;28;20025;-86
2023/12/10 09:40:46;;;;;;;38.30;5.95;;;11.80;99.90;;;;;;5032223;28;20033;-86
2023/12/10 09:43:11;;;;;;;26.38;4.88;;;11.80;99.90;;;;;;5032803;28;20068;-86
2023/12/10 09:45:37;;;;;;;25.55;4.85;;;12.00;99.90;;;;;;5031956;28;20030;-86
2023/12/10 09:48:03;;;;;;;25.48;4.75;;;12.10;99.90;;;;;;5031817;28;20440;-87
2023/12/10 09:50:31;;;;;;;22.75;4.57;;;12.30;99.90;;;;;;5031961;28;20053;-86
2023/12/10 09:52:56;;;;;;;21.85;4.78;;;12.30;99.90;;;;;;5019609;28;20030;-86
2023/12/10 09:55:22;;;;;;;25.67;4.47;;;12.30;99.90;;;;;;5011924;28;20052;-87
2023/12/10 09:57:48;;;;;;;28.52;5.20;;;12.30;99.90;;;;;;5011840;28;20033;-86
2023/12/10 10:00:14;;;;;;;26.02;4.40;;;12.40;99.90;;;;;;5011819;28;20028;-86
2023/12/10 10:02:41;;;;;;;25.52;5.30;;;12.40;99.90;;;;;;5001116;28;20014;-86
2023/12/10 10:05:07;;;;;;;24.77;4.47;;;12.30;99.90;;;;;;5031809;28;20060;-90
2023/12/10 10:07:33;;;;;;;20.58;3.95;;;12.40;99.90;;;;;;5032162;28;20018;-87
2023/12/10 10:09:59;;;;;;;27.75;4.25;;;12.50;99.90;;;;;;5031532;28;20495;-88
2023/12/10 10:12:31;;;;;;;21.48;3.97;;;12.50;99.90;;;;;;5031313;28;20504;-86
2023/12/10 10:14:58;;;;;;;27.63;4.93;;;12.50;99.90;;;;;;5031440;28;20102;-86
2023/12/10 10:17:35;;;;;;;19.10;4.10;;;12.50;99.90;;;;;;5030856;28;20089;-86
2023/12/10 10:20:04;;;;;;;24.13;4.40;;;12.60;99.90;;;;;;5031256;28;20030;-86
2023/12/10 10:22:30;;;;;;;28.05;4.65;;;12.50;99.90;;;;;;5031226;28;20049;-87
2023/12/10 10:24:56;;;;;;;22.50;3.85;;;12.60;99.90;;;;;;5031049;28;20097;-86
2023/12/10 10:27:23;;;;;;;22.88;4.57;;;12.60;99.90;;;;;;5031056;28;20028;-86
2023/12/10 10:29:53;;;;;;;20.65;3.58;;;12.60;99.90;;;;;;5031154;28;20026;-86
2023/12/10 10:32:20;;;;;;;20.45;3.80;;;12.40;99.90;;;;;;5031019;28;20028;-86
2023/12/10 10:34:46;;;;;;;13.32;3.22;;;12.50;99.90;;;;;;5030679;28;20115;-87
2023/12/10 10:37:13;;;;;;;20.65;3.78;;;12.50;99.90;;;;;;5031713;28;20023;-86
2023/12/10 10:39:39;;;;;;;16.83;3.88;;;12.60;99.90;;;;;;5030615;28;20025;-86
2023/12/10 10:42:08;;;;;;;10.80;2.75;;;12.50;99.90;;;;;;5030844;28;20021;-86
2023/12/10 10:44:35;;;;;;;16.08;3.05;;;12.60;99.90;;;;;;5030532;28;20025;-87
2023/12/10 10:47:04;;;;;;;18.55;3.65;;;12.60;99.90;;;;;;5030784;28;20200;-88
2023/12/10 10:49:32;;;;;;;19.33;4.15;;;14.20;99.90;;;;;;5012956;28;20033;-86
2023/12/10 10:52:00;;;;;;;11.20;2.97;;;12.60;99.90;;;;;;5030330;28;20413;-86
2023/12/10 10:54:26;;;;;;;14.55;4.40;;;12.60;99.90;;;;;;5030648;28;20052;-86
2023/12/10 10:56:52;;;;;;;11.25;2.80;;;12.40;99.90;;;;;;5012841;28;20018;-86
2023/12/10 10:59:34;;;;;;;14.15;2.70;;;12.60;99.90;;;;;;5030505;28;20025;-86
2023/12/10 11:02:01;;;;;;;8.40;2.30;;;12.70;99.90;;;;;;5012694;28;20021;-86
2023/12/10 11:04:37;;;;;;;9.82;2.78;;;12.70;99.90;;;;;;5014909;28;20036;-86
2023/12/10 11:07:03;;;;;;;8.85;2.55;;;12.70;99.90;;;;;;5010701;28;20069;-86
2023/12/10 11:09:31;;;;;;;9.23;2.80;;;12.70;99.90;;;;;;5010609;28;20026;-86
2023/12/10 11:11:59;;;;;;;9.77;3.00;;;12.80;99.90;;;;;;5010627;28;20014;-85
2023/12/10 11:14:28;;;;;;;7.28;2.40;;;12.80;99.90;;;;;;5010342;28;20041;-89
2023/12/10 11:17:04;;;;;;;6.38;2.50;;;12.80;99.90;;;;;;5010429;28;20022;-86
2023/12/10 11:19:32;;;;;;;8.20;2.33;;;12.90;99.90;;;;;;5010316;28;20129;-86
2023/12/10 11:22:04;;;;;;;4.93;1.83;;;12.80;99.90;;;;;;5010469;28;20022;-87
2023/12/10 11:24:30;;;;;;;6.32;1.98;;;12.90;99.90;;;;;;5010274;28;20136;-86
2023/12/10 11:26:55;;;;;;;6.63;1.80;;;12.90;99.90;;;;;;5010227;28;20498;-86
2023/12/10 11:29:21;;;;;;;6.05;2.25;;;13.00;99.90;;;;;;5010209;28;20029;-85
2023/12/10 11:31:47;;;;;;;3.22;1.58;;;13.00;99.90;;;;;;5010992;28;20022;-88
2023/12/10 11:34:12;;;;;;;2.97;1.25;;;12.90;99.90;;;;;;5004504;28;20037;-86
2023/12/10 11:36:38;;;;;;;4.18;1.58;;;12.90;99.90;;;;;;5029833;28;20360;-85
2023/12/10 11:39:12;;;;;;;3.17;1.60;;;13.00;99.90;;;;;;5029715;28;20025;-86
2023/12/10 11:41:39;;;;;;;5.05;1.80;;;13.10;99.90;;;;;;5018313;28;20037;-86
2023/12/10 11:44:05;;;;;;;4.55;1.88;;;13.10;99.90;;;;;;4992326;28;20475;-87
2023/12/10 11:46:31;;;;;;;4.47;2.08;;;13.20;99.90;;;;;;5009891;28;20040;-86
2023/12/10 11:48:56;;;;;;;2.58;1.65;;;13.10;99.90;;;;;;5009803;28;20084;-89
2023/12/10 11:51:22;;;;;;;5.47;1.65;;;13.20;99.90;;;;;;5009921;28;20029;-86
2023/12/10 11:53:49;;;;;;;2.05;1.70;;;13.10;99.90;;;;;;4992858;28;20076;-86
2023/12/10 11:56:14;;;;;;;1.50;1.40;;;13.30;99.90;;;;;;4995769;28;20370;-86
2023/12/10 11:58:44;;;;;;;3.42;1.30;;;13.30;99.90;;;;;;5029139;28;20484;-85
2023/12/10 12:01:10;;;;;;;1.70;1.30;;;13.30;99.90;;;;;;5011659;28;20324;-86
2023/12/10 12:03:36;;;;;;;1.45;1.25;;;13.40;99.90;;;;;;5011570;28;20397;-86
2023/12/10 12:06:04;;;;;;;3.20;1.40;;;13.40;99.90;;;;;;5029355;28;20473;-86
2023/12/10 12:08:29;;;;;;;1.10;1.05;;;13.50;99.90;;;;;;5011575;28;20029;-86
2023/12/10 12:10:57;;;;;;;1.52;1.40;;;13.50;99.90;;;;;;5028984;28;20038;-90
2023/12/10 12:13:23;;;;;;;1.35;1.00;;;13.60;99.90;;;;;;5029197;28;20033;-86
2023/12/10 12:15:51;;;;;;;1.35;1.20;;;13.60;99.90;;;;;;5030042;28;20037;-86
2023/12/10 12:18:16;;;;;;;2.42;1.00;;;13.70;99.90;;;;;;5030058;28;20037;-86
2023/12/10 12:20:43;;;;;;;1.67;1.40;;;13.70;99.90;;;;;;5029191;28;20037;-86
2023/12/10 12:23:09;;;;;;;3.17;1.00;;;13.70;99.90;;;;;;5028996;28;20018;-86
2023/12/10 12:25:37;;;;;;;2.10;1.30;;;13.80;99.90;;;;;;5029048;28;20036;-86
2023/12/10 12:28:09;;;;;;;1.23;1.10;;;13.90;99.90;;;;;;5028698;28;20540;-86
2023/12/10 12:30:36;;;;;;;1.30;1.10;;;13.80;99.90;;;;;;5025945;28;20104;-87
2023/12/10 12:33:05;;;;;;;1.40;1.30;;;13.90;99.90;;;;;;5009216;28;20030;-86
2023/12/10 12:35:31;;;;;;;1.80;1.65;;;13.90;99.90;;;;;;5009155;28;20088;-86
2023/12/10 12:37:57;;;;;;;1.85;1.48;;;14.00;99.90;;;;;;5009324;28;20018;-86